Waverly, KS

9:29 PM CDT on September 21, 2014 (GMT -0500)
KD0RII | Change Station
CLOSE
Current Station
Personal Weather Station
Location: Melvern, KS
Elevation: 1007 ft
Nearby Weather Stations

Elev 1007 ft 38.50 °N, 95.64 °W | Updated 25 seconds ago

Clear
Clear
58.6 °F
Feels Like 58.6 °F
N
0.0
Wind Variable Wind from North
Gusts 2.2 mph

Today
High -- | Low -- °F
--% Chance of Precip.
Yesterday
High -- | Low -- °F
Precip. -- in
7:09 AM 7:20 PM
Waning Crescent, 4% visible
Pressure 30.21 in
Visibility 10.0 miles
Clouds Clear
Dew Point 51 °F
Humidity 75%
Rainfall 0.00 in
Snow Depth Not available.
UV 0 out of 12
Pollen 5.30 out of 12
Air Quality Not available.
Flu Activity Not available.
METAR KEMP 220153Z AUTO 04006KT 10SM CLR 17/10 A3022 RMK AO2 SLP229 T01670100

More Conditions Fewer Conditions

Pressure 30.21 in
Visibility 10.0 miles
Clouds Clear
Dew Point 51 °F
Humidity 75%
Rainfall 0.00 in
Snow Depth Not available.
UV 0 out of 12
Pollen 5.30 out of 12
Air Quality Not available.
Flu Activity Not available.
METAR KEMP 220153Z AUTO 04006KT 10SM CLR 17/10 A3022 RMK AO2 SLP229 T01670100

More Conditions Fewer Conditions

10-Day Weather Forecast

Almanac

Astronomy

Sep. 21, 2014 Rise Set
Actual Time 7:09 AM CDT 7:20 PM CDT
Civil Twilight 6:42 AM CDT 7:47 PM CDT
Nautical Twilight 6:11 AM CDT 8:18 PM CDT
Astronomical Twilight 5:40 AM CDT 8:49 PM CDT
Moon 4:45 AM CDT (9/21) 5:56 PM CDT (9/21)
Length of Visible Light 13h 04m
Length of Day
12h 11m
Tomorrow will be 2m 28s shorter.
Waning Crescent, 4% of the Moon is Illuminated
Today
Waning Crescent
Sep 24
New
Oct 1
First Quarter
Oct 8
Full
Oct 15
Last Quarter

Today's Extremes

State Highs State Lows

Community

WunderPhotos

Upload Photos

1,755,364 photos uploaded!

WunderBlogs® & News

Nearby

Snow Depth

Station Depth Elevation
No new snow has been reported.

Earthquake Activity

City Distance Mag. Time & Date
No recent earthquake activity has been reported nearby.
Minimum magnitude displayed is 2.5.

Coastal Water Temperatures

Place Temperature
No Stations Reporting

Nearby Weather Stations